sensor_id;sensor_type;location;lat;lon;timestamp;pressure;altitude;pressure_sealevel;temperature;humidity
25156;BME280;21913;52.456;13.634;2022-10-16T00:04:51;99814.41;;;14.91;74.47
25156;BME280;21913;52.456;13.634;2022-10-16T00:09:53;99807.47;;;14.91;74.29
25156;BME280;21913;52.456;13.634;2022-10-16T00:14:54;99811.81;;;14.91;74.42
25156;BME280;21913;52.456;13.634;2022-10-16T00:19:56;99817.88;;;14.91;74.19
25156;BME280;21913;52.456;13.634;2022-10-16T00:24:57;99826.59;;;14.90;74.29
25156;BME280;21913;52.456;13.634;2022-10-16T00:29:58;99812.66;;;14.91;74.35
25156;BME280;21913;52.456;13.634;2022-10-16T00:35:00;99825.69;;;14.91;74.36
25156;BME280;21913;52.456;13.634;2022-10-16T00:40:02;99823.94;;;14.92;74.33
25156;BME280;21913;52.456;13.634;2022-10-16T00:45:04;99816.13;;;14.92;74.30
25156;BME280;21913;52.456;13.634;2022-10-16T00:55:23;99830.00;;;14.92;74.23
25156;BME280;21913;52.456;13.634;2022-10-16T01:00:26;99824.78;;;14.92;74.26
25156;BME280;21913;52.456;13.634;2022-10-16T01:05:38;99829.09;;;14.93;74.35
25156;BME280;21913;52.456;13.634;2022-10-16T01:10:52;99830.00;;;14.92;74.35
25156;BME280;21913;52.456;13.634;2022-10-16T01:16:04;99830.00;;;14.92;74.05
25156;BME280;21913;52.456;13.634;2022-10-16T01:21:10;99830.84;;;14.93;74.25
25156;BME280;21913;52.456;13.634;2022-10-16T01:26:43;99840.38;;;14.94;74.40
25156;BME280;21913;52.456;13.634;2022-10-16T01:31:52;99835.16;;;14.94;74.25
25156;BME280;21913;52.456;13.634;2022-10-16T01:36:58;99841.28;;;14.93;74.29
25156;BME280;21913;52.456;13.634;2022-10-16T01:42:07;99843.00;;;14.94;74.42
25156;BME280;21913;52.456;13.634;2022-10-16T01:47:10;99842.13;;;14.93;74.45
25156;BME280;21913;52.456;13.634;2022-10-16T01:52:17;99843.00;;;14.94;74.28
25156;BME280;21913;52.456;13.634;2022-10-16T01:57:21;99842.13;;;14.93;74.41
25156;BME280;21913;52.456;13.634;2022-10-16T02:02:26;99839.53;;;14.93;74.32
25156;BME280;21913;52.456;13.634;2022-10-16T02:07:29;99840.38;;;14.94;74.33
25156;BME280;21913;52.456;13.634;2022-10-16T02:12:33;99848.19;;;14.94;74.16
25156;BME280;21913;52.456;13.634;2022-10-16T02:17:35;99853.41;;;14.94;74.29
25156;BME280;21913;52.456;13.634;2022-10-16T02:22:45;99845.59;;;14.94;74.33
25156;BME280;21913;52.456;13.634;2022-10-16T02:28:00;99843.84;;;14.94;74.33
25156;BME280;21913;52.456;13.634;2022-10-16T02:33:05;99853.41;;;14.94;74.14
25156;BME280;21913;52.456;13.634;2022-10-16T02:38:09;99849.91;;;14.95;74.15
25156;BME280;21913;52.456;13.634;2022-10-16T02:43:16;99855.13;;;14.95;74.42
25156;BME280;21913;52.456;13.634;2022-10-16T02:48:17;99864.69;;;14.94;74.28
25156;BME280;21913;52.456;13.634;2022-10-16T02:53:19;99875.97;;;14.95;74.27
25156;BME280;21913;52.456;13.634;2022-10-16T02:58:21;99859.47;;;14.94;74.33
25156;BME280;21913;52.456;13.634;2022-10-16T03:03:22;99856.84;;;14.96;74.46
25156;BME280;21913;52.456;13.634;2022-10-16T03:08:23;99857.72;;;14.95;74.36
25156;BME280;21913;52.456;13.634;2022-10-16T03:13:25;99849.91;;;14.95;74.19
25156;BME280;21913;52.456;13.634;2022-10-16T03:18:26;99855.13;;;14.95;74.46
25156;BME280;21913;52.456;13.634;2022-10-16T03:23:28;99849.03;;;14.96;74.60
25156;BME280;21913;52.456;13.634;2022-10-16T03:28:34;99852.50;;;14.95;74.17
25156;BME280;21913;52.456;13.634;2022-10-16T03:33:36;99854.25;;;14.96;74.11
25156;BME280;21913;52.456;13.634;2022-10-16T03:38:37;99865.53;;;14.96;74.35
25156;BME280;21913;52.456;13.634;2022-10-16T03:43:39;99863.78;;;14.97;74.33
25156;BME280;21913;52.456;13.634;2022-10-16T03:48:40;99854.25;;;14.96;74.11
25156;BME280;21913;52.456;13.634;2022-10-16T03:53:41;99851.66;;;14.96;74.19
25156;BME280;21913;52.456;13.634;2022-10-16T03:58:43;99842.09;;;14.96;74.07
25156;BME280;21913;52.456;13.634;2022-10-16T04:03:44;99847.28;;;14.96;74.45
25156;BME280;21913;52.456;13.634;2022-10-16T04:08:46;99854.25;;;14.96;74.25
25156;BME280;21913;52.456;13.634;2022-10-16T04:13:47;99867.25;;;14.97;74.40
25156;BME280;21913;52.456;13.634;2022-10-16T04:18:49;99868.09;;;14.98;74.23
25156;BME280;21913;52.456;13.634;2022-10-16T04:23:50;99877.66;;;14.97;74.26
25156;BME280;21913;52.456;13.634;2022-10-16T04:28:52;99869.84;;;14.97;74.47
25156;BME280;21913;52.456;13.634;2022-10-16T04:33:53;99888.94;;;14.98;74.10
25156;BME280;21913;52.456;13.634;2022-10-16T04:38:55;99886.34;;;14.98;74.13
25156;BME280;21913;52.456;13.634;2022-10-16T04:43:56;99904.56;;;14.98;74.12
25156;BME280;21913;52.456;13.634;2022-10-16T04:48:58;99885.47;;;14.97;74.05
25156;BME280;21913;52.456;13.634;2022-10-16T04:53:59;99912.38;;;14.98;74.16
25156;BME280;21913;52.456;13.634;2022-10-16T04:59:01;99915.84;;;14.98;74.32
25156;BME280;21913;52.456;13.634;2022-10-16T05:04:02;99914.09;;;14.99;74.14
25156;BME280;21913;52.456;13.634;2022-10-16T05:09:05;99921.06;;;14.98;74.22
25156;BME280;21913;52.456;13.634;2022-10-16T05:14:06;99928.88;;;14.98;74.16
25156;BME280;21913;52.456;13.634;2022-10-16T05:19:08;99921.06;;;14.98;74.16
25156;BME280;21913;52.456;13.634;2022-10-16T05:24:26;99927.13;;;14.99;74.07
25156;BME280;21913;52.456;13.634;2022-10-16T05:29:28;99921.94;;;14.97;74.28
25156;BME280;21913;52.456;13.634;2022-10-16T05:34:29;99934.94;;;14.99;74.28
25156;BME280;21913;52.456;13.634;2022-10-16T05:39:31;99949.72;;;14.98;74.13
25156;BME280;21913;52.456;13.634;2022-10-16T05:44:32;99945.34;;;14.99;74.13
25156;BME280;21913;52.456;13.634;2022-10-16T05:49:39;99945.34;;;14.99;74.14
25156;BME280;21913;52.456;13.634;2022-10-16T05:54:41;99964.44;;;14.99;74.08
25156;BME280;21913;52.456;13.634;2022-10-16T05:59:43;99969.66;;;14.99;74.29
25156;BME280;21913;52.456;13.634;2022-10-16T06:04:44;99979.22;;;15.01;74.22
25156;BME280;21913;52.456;13.634;2022-10-16T06:09:52;99980.94;;;15.00;74.31
25156;BME280;21913;52.456;13.634;2022-10-16T06:14:54;99978.34;;;15.00;74.34
25156;BME280;21913;52.456;13.634;2022-10-16T06:19:55;99978.34;;;15.00;74.21
25156;BME280;21913;52.456;13.634;2022-10-16T06:24:57;99994.84;;;15.01;74.33
25156;BME280;21913;52.456;13.634;2022-10-16T06:29:58;100002.66;;;15.01;74.37
25156;BME280;21913;52.456;13.634;2022-10-16T06:35:00;100012.19;;;15.02;74.22
25156;BME280;21913;52.456;13.634;2022-10-16T06:40:01;100011.34;;;15.01;74.46
25156;BME280;21913;52.456;13.634;2022-10-16T06:45:03;100031.31;;;15.01;74.39
25156;BME280;21913;52.456;13.634;2022-10-16T06:50:05;100036.50;;;15.02;74.44
25156;BME280;21913;52.456;13.634;2022-10-16T06:55:07;100040.84;;;15.02;74.29
25156;BME280;21913;52.456;13.634;2022-10-16T07:00:09;100043.47;;;15.02;74.38
25156;BME280;21913;52.456;13.634;2022-10-16T07:05:10;100059.09;;;15.02;74.46
25156;BME280;21913;52.456;13.634;2022-10-16T07:10:12;100064.31;;;15.02;74.25
25156;BME280;21913;52.456;13.634;2022-10-16T07:15:14;100070.38;;;15.02;74.47
25156;BME280;21913;52.456;13.634;2022-10-16T07:20:15;100082.53;;;15.02;74.51
25156;BME280;21913;52.456;13.634;2022-10-16T07:25:17;100083.41;;;15.02;74.44
25156;BME280;21913;52.456;13.634;2022-10-16T07:30:18;100098.16;;;15.03;74.31
25156;BME280;21913;52.456;13.634;2022-10-16T07:35:20;100100.75;;;15.03;74.54
25156;BME280;21913;52.456;13.634;2022-10-16T07:40:21;100111.16;;;15.03;74.22
25156;BME280;21913;52.456;13.634;2022-10-16T07:45:23;100129.41;;;15.03;74.44
25156;BME280;21913;52.456;13.634;2022-10-16T07:50:24;100122.44;;;15.04;74.33
25156;BME280;21913;52.456;13.634;2022-10-16T07:55:26;100137.22;;;15.03;74.52
25156;BME280;21913;52.456;13.634;2022-10-16T08:00:27;100128.50;;;15.04;74.64
25156;BME280;21913;52.456;13.634;2022-10-16T08:05:31;100134.59;;;15.05;74.50
25156;BME280;21913;52.456;13.634;2022-10-16T08:10:33;100140.66;;;15.05;74.29
25156;BME280;21913;52.456;13.634;2022-10-16T08:15:35;100142.41;;;15.05;74.55
25156;BME280;21913;52.456;13.634;2022-10-16T08:20:36;100156.28;;;15.05;74.44
25156;BME280;21913;52.456;13.634;2022-10-16T08:25:38;100171.94;;;15.05;74.37
25156;BME280;21913;52.456;13.634;2022-10-16T08:30:39;100177.13;;;15.05;74.34
25156;BME280;21913;52.456;13.634;2022-10-16T08:35:41;100186.69;;;15.05;74.24
25156;BME280;21913;52.456;13.634;2022-10-16T08:40:42;100190.16;;;15.05;74.28
25156;BME280;21913;52.456;13.634;2022-10-16T08:51:02;100200.59;;;15.07;74.30
25156;BME280;21913;52.456;13.634;2022-10-16T08:56:04;100213.47;;;15.14;74.58
25156;BME280;21913;52.456;13.634;2022-10-16T09:01:12;100220.25;;;15.26;74.44
25156;BME280;21913;52.456;13.634;2022-10-16T09:17:00;100248.19;;;15.70;73.76
25156;BME280;21913;52.456;13.634;2022-10-16T09:22:16;100249.00;;;15.74;73.13
25156;BME280;21913;52.456;13.634;2022-10-16T09:27:18;100238.53;;;15.75;72.63
25156;BME280;21913;52.456;13.634;2022-10-16T09:32:20;100237.72;;;15.73;71.97
25156;BME280;21913;52.456;13.634;2022-10-16T09:37:23;100248.25;;;15.67;72.28
25156;BME280;21913;52.456;13.634;2022-10-16T09:42:31;100246.63;;;15.59;72.92
25156;BME280;21913;52.456;13.634;2022-10-16T09:47:37;100260.59;;;15.55;73.14
25156;BME280;21913;52.456;13.634;2022-10-16T09:52:41;100262.47;;;15.49;73.32
25156;BME280;21913;52.456;13.634;2022-10-16T09:57:50;100270.28;;;15.48;73.13
25156;BME280;21913;52.456;13.634;2022-10-16T10:02:53;100266.00;;;15.44;73.68
25156;BME280;21913;52.456;13.634;2022-10-16T10:08:03;100270.34;;;15.43;73.70
25156;BME280;21913;52.456;13.634;2022-10-16T10:13:17;100283.41;;;15.42;73.66
25156;BME280;21913;52.456;13.634;2022-10-16T10:18:21;100282.56;;;15.41;73.55
25156;BME280;21913;52.456;13.634;2022-10-16T10:23:25;100286.91;;;15.41;73.82
25156;BME280;21913;52.456;13.634;2022-10-16T10:29:10;100293.03;;;15.40;73.94
25156;BME280;21913;52.456;13.634;2022-10-16T10:39:29;100291.31;;;15.39;73.87
25156;BME280;21913;52.456;13.634;2022-10-16T10:55:38;100303.44;;;15.38;73.91
25156;BME280;21913;52.456;13.634;2022-10-16T11:06:17;100308.66;;;15.38;73.99
25156;BME280;21913;52.456;13.634;2022-10-16T11:11:27;100312.16;;;15.39;74.12
25156;BME280;21913;52.456;13.634;2022-10-16T11:16:39;100313.03;;;15.38;74.12
25156;BME280;21913;52.456;13.634;2022-10-16T11:21:48;100308.69;;;15.37;73.79
25156;BME280;21913;52.456;13.634;2022-10-16T11:26:52;100317.38;;;15.37;74.19
25156;BME280;21913;52.456;13.634;2022-10-16T11:32:05;100313.03;;;15.38;74.13
25156;BME280;21913;52.456;13.634;2022-10-16T11:37:16;100317.38;;;15.37;74.01
25156;BME280;21913;52.456;13.634;2022-10-16T11:47:41;100312.16;;;15.37;73.90
25156;BME280;21913;52.456;13.634;2022-10-16T11:58:24;100314.78;;;15.37;74.13
25156;BME280;21913;52.456;13.634;2022-10-16T12:08:36;100321.75;;;15.37;74.17
25156;BME280;21913;52.456;13.634;2022-10-16T12:13:40;100322.59;;;15.37;74.11
25156;BME280;21913;52.456;13.634;2022-10-16T12:18:46;100330.41;;;15.37;74.17
25156;BME280;21913;52.456;13.634;2022-10-16T12:23:56;100325.19;;;15.37;73.94
25156;BME280;21913;52.456;13.634;2022-10-16T12:34:26;100334.75;;;15.38;73.92
25156;BME280;21913;52.456;13.634;2022-10-16T12:39:29;100339.13;;;15.36;73.95
25156;BME280;21913;52.456;13.634;2022-10-16T12:44:35;100340.84;;;15.37;74.17
25156;BME280;21913;52.456;13.634;2022-10-16T12:49:37;100351.28;;;15.39;74.07
25156;BME280;21913;52.456;13.634;2022-10-16T12:54:49;100356.50;;;15.39;73.83
25156;BME280;21913;52.456;13.634;2022-10-16T13:05:12;100352.13;;;15.38;74.04
25156;BME280;21913;52.456;13.634;2022-10-16T13:10:25;100359.94;;;15.38;74.02
25156;BME280;21913;52.456;13.634;2022-10-16T13:15:30;100363.47;;;15.35;73.96
25156;BME280;21913;52.456;13.634;2022-10-16T13:31:23;100361.69;;;15.37;74.08
25156;BME280;21913;52.456;13.634;2022-10-16T13:36:29;100366.03;;;15.38;74.14
25156;BME280;21913;52.456;13.634;2022-10-16T13:41:30;100374.75;;;15.37;74.09
25156;BME280;21913;52.456;13.634;2022-10-16T13:46:32;100374.75;;;15.37;73.96
25156;BME280;21913;52.456;13.634;2022-10-16T13:51:33;100370.38;;;15.38;74.23
25156;BME280;21913;52.456;13.634;2022-10-16T13:56:35;100366.91;;;15.39;73.98
25156;BME280;21913;52.456;13.634;2022-10-16T14:01:41;100388.63;;;15.39;73.84
25156;BME280;21913;52.456;13.634;2022-10-16T14:06:45;100393.00;;;15.39;73.92
25156;BME280;21913;52.456;13.634;2022-10-16T14:11:57;100403.38;;;15.40;73.86
25156;BME280;21913;52.456;13.634;2022-10-16T14:16:59;100396.47;;;15.39;73.85
25156;BME280;21913;52.456;13.634;2022-10-16T14:22:01;100396.47;;;15.39;73.96
25156;BME280;21913;52.456;13.634;2022-10-16T14:27:26;100382.56;;;15.39;73.79
25156;BME280;21913;52.456;13.634;2022-10-16T14:32:29;100376.47;;;15.38;73.97
25156;BME280;21913;52.456;13.634;2022-10-16T14:37:30;100389.50;;;15.40;74.13
25156;BME280;21913;52.456;13.634;2022-10-16T14:42:32;100390.34;;;15.40;74.12
25156;BME280;21913;52.456;13.634;2022-10-16T14:47:33;100388.63;;;15.39;74.20
25156;BME280;21913;52.456;13.634;2022-10-16T14:52:35;100383.41;;;15.39;73.79
25156;BME280;21913;52.456;13.634;2022-10-16T14:57:38;100399.91;;;15.40;74.08
25156;BME280;21913;52.456;13.634;2022-10-16T15:02:40;100407.75;;;15.40;73.88
25156;BME280;21913;52.456;13.634;2022-10-16T15:07:42;100408.59;;;15.40;73.91
25156;BME280;21913;52.456;13.634;2022-10-16T15:12:43;100406.00;;;15.40;74.01
25156;BME280;21913;52.456;13.634;2022-10-16T15:17:45;100416.44;;;15.40;74.10
25156;BME280;21913;52.456;13.634;2022-10-16T15:22:46;100399.91;;;15.40;74.02
25156;BME280;21913;52.456;13.634;2022-10-16T15:27:48;100403.38;;;15.40;73.97
25156;BME280;21913;52.456;13.634;2022-10-16T15:32:49;100396.44;;;15.41;73.82
25156;BME280;21913;52.456;13.634;2022-10-16T15:37:51;100410.34;;;15.40;74.05
25156;BME280;21913;52.456;13.634;2022-10-16T15:42:53;100407.75;;;15.40;73.89
25156;BME280;21913;52.456;13.634;2022-10-16T15:47:54;100399.91;;;15.40;74.10
25156;BME280;21913;52.456;13.634;2022-10-16T15:52:55;100414.72;;;15.39;74.12
25156;BME280;21913;52.456;13.634;2022-10-16T15:57:57;100408.63;;;15.39;74.12
25156;BME280;21913;52.456;13.634;2022-10-16T16:02:59;100420.78;;;15.40;73.86
25156;BME280;21913;52.456;13.634;2022-10-16T16:08:00;100426.84;;;15.40;74.18
25156;BME280;21913;52.456;13.634;2022-10-16T16:13:01;100410.34;;;15.40;73.89
25156;BME280;21913;52.456;13.634;2022-10-16T16:18:03;100412.97;;;15.40;73.95
25156;BME280;21913;52.456;13.634;2022-10-16T16:23:09;100419.03;;;15.40;74.08
25156;BME280;21913;52.456;13.634;2022-10-16T16:28:11;100421.63;;;15.40;73.82
25156;BME280;21913;52.456;13.634;2022-10-16T16:33:12;100415.56;;;15.40;73.92
25156;BME280;21913;52.456;13.634;2022-10-16T16:38:14;100412.06;;;15.41;73.96
25156;BME280;21913;52.456;13.634;2022-10-16T16:43:15;100422.50;;;15.41;73.85
25156;BME280;21913;52.456;13.634;2022-10-16T16:48:17;100425.97;;;15.41;74.02
25156;BME280;21913;52.456;13.634;2022-10-16T16:53:19;100438.16;;;15.41;74.13
25156;BME280;21913;52.456;13.634;2022-10-16T16:58:21;100438.16;;;15.41;74.03
25156;BME280;21913;52.456;13.634;2022-10-16T17:03:22;100445.09;;;15.40;73.99
25156;BME280;21913;52.456;13.634;2022-10-16T17:08:24;100459.00;;;15.41;74.03
25156;BME280;21913;52.456;13.634;2022-10-16T17:13:28;100454.66;;;15.41;74.21
25156;BME280;21913;52.456;13.634;2022-10-16T17:18:31;100468.53;;;15.42;73.97
25156;BME280;21913;52.456;13.634;2022-10-16T17:23:34;100465.06;;;15.41;73.92
25156;BME280;21913;52.456;13.634;2022-10-16T17:28:36;100480.72;;;15.41;74.11
25156;BME280;21913;52.456;13.634;2022-10-16T17:33:37;100466.81;;;15.41;74.11
25156;BME280;21913;52.456;13.634;2022-10-16T17:38:40;100457.25;;;15.41;73.73
25156;BME280;21913;52.456;13.634;2022-10-16T17:43:44;100465.94;;;15.42;74.13
25156;BME280;21913;52.456;13.634;2022-10-16T17:48:49;100478.13;;;15.41;73.88
25156;BME280;21913;52.456;13.634;2022-10-16T17:53:55;100486.78;;;15.42;73.87
25156;BME280;21913;52.456;13.634;2022-10-16T17:58:59;100492.00;;;15.42;74.06
25156;BME280;21913;52.456;13.634;2022-10-16T18:04:09;100491.13;;;15.43;73.90
25156;BME280;21913;52.456;13.634;2022-10-16T18:09:13;100498.09;;;15.42;74.24
25156;BME280;21913;52.456;13.634;2022-10-16T18:14:16;100499.84;;;15.42;73.89
25156;BME280;21913;52.456;13.634;2022-10-16T18:19:18;100498.09;;;15.42;74.13
25156;BME280;21913;52.456;13.634;2022-10-16T18:24:21;100487.66;;;15.42;74.05
25156;BME280;21913;52.456;13.634;2022-10-16T18:29:24;100509.38;;;15.43;73.93
25156;BME280;21913;52.456;13.634;2022-10-16T18:34:26;100509.38;;;15.43;74.02
25156;BME280;21913;52.456;13.634;2022-10-16T18:39:28;100509.38;;;15.43;74.06
25156;BME280;21913;52.456;13.634;2022-10-16T18:44:29;100503.28;;;15.42;73.99
25156;BME280;21913;52.456;13.634;2022-10-16T18:49:31;100497.22;;;15.42;74.24
25156;BME280;21913;52.456;13.634;2022-10-16T18:54:33;100498.94;;;15.43;73.77
25156;BME280;21913;52.456;13.634;2022-10-16T18:59:34;100494.59;;;15.43;73.84
25156;BME280;21913;52.456;13.634;2022-10-16T19:04:36;100491.97;;;15.43;73.95
25156;BME280;21913;52.456;13.634;2022-10-16T19:09:37;100481.56;;;15.43;74.07
25156;BME280;21913;52.456;13.634;2022-10-16T19:14:39;100486.75;;;15.43;74.17
25156;BME280;21913;52.456;13.634;2022-10-16T19:19:40;100487.63;;;15.44;74.06
25156;BME280;21913;52.456;13.634;2022-10-16T19:24:45;100490.22;;;15.44;73.91
25156;BME280;21913;52.456;13.634;2022-10-16T19:29:46;100485.03;;;15.44;74.22
25156;BME280;21913;52.456;13.634;2022-10-16T19:34:49;100491.97;;;15.45;73.90
25156;BME280;21913;52.456;13.634;2022-10-16T19:39:50;100486.78;;;15.45;74.07
25156;BME280;21913;52.456;13.634;2022-10-16T19:44:52;100495.44;;;15.44;74.26
25156;BME280;21913;52.456;13.634;2022-10-16T19:49:53;100514.56;;;15.46;74.12
25156;BME280;21913;52.456;13.634;2022-10-16T19:54:55;100514.59;;;15.44;73.94
25156;BME280;21913;52.456;13.634;2022-10-16T19:59:57;100526.75;;;15.45;73.81
25156;BME280;21913;52.456;13.634;2022-10-16T20:04:58;100556.31;;;15.44;73.95
25156;BME280;21913;52.456;13.634;2022-10-16T20:10:00;100588.44;;;15.46;74.07
25156;BME280;21913;52.456;13.634;2022-10-16T20:15:01;100555.44;;;15.45;74.07
25156;BME280;21913;52.456;13.634;2022-10-16T20:20:03;100560.63;;;15.47;73.82
25156;BME280;21913;52.456;13.634;2022-10-16T20:25:05;100565.00;;;15.45;74.14
25156;BME280;21913;52.456;13.634;2022-10-16T20:30:07;100564.97;;;15.46;73.95
25156;BME280;21913;52.456;13.634;2022-10-16T20:35:09;100544.97;;;15.47;74.05
25156;BME280;21913;52.456;13.634;2022-10-16T20:40:11;100558.00;;;15.47;74.06
25156;BME280;21913;52.456;13.634;2022-10-16T20:45:12;100544.97;;;15.47;73.89
25156;BME280;21913;52.456;13.634;2022-10-16T20:50:14;100557.16;;;15.46;74.08
25156;BME280;21913;52.456;13.634;2022-10-16T20:55:16;100559.72;;;15.48;73.78
25156;BME280;21913;52.456;13.634;2022-10-16T21:00:17;100558.88;;;15.47;73.94
25156;BME280;21913;52.456;13.634;2022-10-16T21:05:19;100551.03;;;15.47;73.98
25156;BME280;21913;52.456;13.634;2022-10-16T21:10:21;100541.47;;;15.48;74.10
25156;BME280;21913;52.456;13.634;2022-10-16T21:15:23;100535.41;;;15.47;74.07
25156;BME280;21913;52.456;13.634;2022-10-16T21:20:24;100538.00;;;15.47;73.79
25156;BME280;21913;52.456;13.634;2022-10-16T21:25:26;100536.25;;;15.48;73.89
25156;BME280;21913;52.456;13.634;2022-10-16T21:30:27;100536.25;;;15.48;73.97
25156;BME280;21913;52.456;13.634;2022-10-16T21:35:29;100537.97;;;15.49;73.94
25156;BME280;21913;52.456;13.634;2022-10-16T21:40:32;100540.59;;;15.49;74.04
25156;BME280;21913;52.456;13.634;2022-10-16T21:45:34;100531.03;;;15.48;74.12
25156;BME280;21913;52.456;13.634;2022-10-16T21:50:35;100533.66;;;15.48;74.00
25156;BME280;21913;52.456;13.634;2022-10-16T21:55:37;100537.13;;;15.48;74.03
25156;BME280;21913;52.456;13.634;2022-10-16T22:00:38;100524.09;;;15.48;74.16
25156;BME280;21913;52.456;13.634;2022-10-16T22:05:40;100519.72;;;15.49;73.79
25156;BME280;21913;52.456;13.634;2022-10-16T22:10:41;100527.53;;;15.49;74.13
25156;BME280;21913;52.456;13.634;2022-10-16T22:15:49;100525.84;;;15.49;73.94
25156;BME280;21913;52.456;13.634;2022-10-16T22:20:50;100512.78;;;15.49;74.04
25156;BME280;21913;52.456;13.634;2022-10-16T22:26:05;100511.91;;;15.50;74.09
25156;BME280;21913;52.456;13.634;2022-10-16T22:31:09;100505.81;;;15.50;73.85
25156;BME280;21913;52.456;13.634;2022-10-16T22:36:13;100507.53;;;15.51;73.85
25156;BME280;21913;52.456;13.634;2022-10-16T22:41:15;100504.97;;;15.49;73.87
25156;BME280;21913;52.456;13.634;2022-10-16T22:46:24;100510.16;;;15.51;73.82
25156;BME280;21913;52.456;13.634;2022-10-16T22:51:26;100503.22;;;15.50;73.93
25156;BME280;21913;52.456;13.634;2022-10-16T22:56:28;100504.97;;;15.49;74.00
25156;BME280;21913;52.456;13.634;2022-10-16T23:01:33;100515.38;;;15.51;74.23
25156;BME280;21913;52.456;13.634;2022-10-16T23:06:35;100510.13;;;15.52;73.92
25156;BME280;21913;52.456;13.634;2022-10-16T23:11:36;100511.91;;;15.50;74.09
25156;BME280;21913;52.456;13.634;2022-10-16T23:16:37;100509.28;;;15.50;74.08
25156;BME280;21913;52.456;13.634;2022-10-16T23:21:39;100515.38;;;15.51;74.15
25156;BME280;21913;52.456;13.634;2022-10-16T23:26:40;100502.34;;;15.51;74.02
25156;BME280;21913;52.456;13.634;2022-10-16T23:31:42;100504.06;;;15.50;73.91
25156;BME280;21913;52.456;13.634;2022-10-16T23:36:43;100508.41;;;15.51;74.01
25156;BME280;21913;52.456;13.634;2022-10-16T23:41:45;100514.47;;;15.52;73.99
25156;BME280;21913;52.456;13.634;2022-10-16T23:46:46;100504.94;;;15.51;74.14
25156;BME280;21913;52.456;13.634;2022-10-16T23:51:48;100502.34;;;15.51;74.16
25156;BME280;21913;52.456;13.634;2022-10-16T23:56:49;100506.66;;;15.52;74.09
